createdAt,value
2023-05-01T00:02:14.520Z,100.00
2023-05-01T00:04:41.515Z,100.00
2023-05-01T00:07:08.737Z,100.00
2023-05-01T00:09:35.672Z,100.00
2023-05-01T00:12:03.744Z,100.00
2023-05-01T00:14:30.712Z,100.00
2023-05-01T00:16:58.045Z,100.00
2023-05-01T00:19:25.041Z,100.00
2023-05-01T00:21:53.164Z,100.00
2023-05-01T00:24:20.068Z,100.00
2023-05-01T00:26:47.483Z,100.00
2023-05-01T00:29:14.461Z,100.00
2023-05-01T00:31:45.729Z,100.00
2023-05-01T00:34:12.673Z,100.00
2023-05-01T00:36:39.888Z,100.00
2023-05-01T00:39:08.116Z,100.00
2023-05-01T00:41:35.898Z,100.00
2023-05-01T00:44:03.278Z,100.00
2023-05-01T00:46:32.326Z,100.00
2023-05-01T00:48:59.472Z,100.00
2023-05-01T00:51:29.256Z,100.00
2023-05-01T00:53:56.489Z,100.00
2023-05-01T00:56:23.792Z,100.00
2023-05-01T00:58:54.468Z,100.00
2023-05-01T01:01:21.922Z,100.00
2023-05-01T01:03:49.235Z,100.00
2023-05-01T01:06:21.780Z,100.00
2023-05-01T01:08:55.385Z,100.00
2023-05-01T01:11:46.279Z,100.00
2023-05-01T01:14:25.080Z,100.00
2023-05-01T01:16:59.342Z,100.00
2023-05-01T01:19:50.834Z,100.00
2023-05-01T01:22:24.282Z,100.00
2023-05-01T01:25:38.594Z,100.00
2023-05-01T01:28:34.730Z,100.00
2023-05-01T01:31:22.745Z,100.00
2023-05-01T01:34:03.574Z,100.00
2023-05-01T01:36:39.225Z,100.00
2023-05-01T01:39:11.464Z,100.00
2023-05-01T01:41:40.114Z,100.00
2023-05-01T01:44:21.281Z,100.00
2023-05-01T01:46:51.284Z,100.00
2023-05-01T01:49:25.248Z,100.00
2023-05-01T01:51:53.234Z,100.00
2023-05-01T01:54:26.745Z,100.00
2023-05-01T01:56:55.479Z,100.00
2023-05-01T01:59:24.273Z,100.00
2023-05-01T02:01:53.567Z,100.00
2023-05-01T02:04:22.986Z,100.00
2023-05-01T02:06:50.166Z,100.00
2023-05-01T02:09:19.594Z,100.00
2023-05-01T02:11:46.957Z,100.00
2023-05-01T02:14:15.375Z,100.00
2023-05-01T02:16:44.078Z,100.00
2023-05-01T02:19:13.239Z,100.00
2023-05-01T02:21:41.442Z,100.00
2023-05-01T02:24:10.444Z,100.00
2023-05-01T02:26:42.650Z,100.00
2023-05-01T02:29:10.916Z,100.00
2023-05-01T02:31:38.271Z,100.00
2023-05-01T02:34:06.778Z,100.00
2023-05-01T02:36:36.169Z,100.00
2023-05-01T02:39:03.441Z,100.00
2023-05-01T02:41:32.265Z,100.00
2023-05-01T02:44:04.429Z,100.00
2023-05-01T02:46:35.340Z,100.00
2023-05-01T02:49:07.001Z,100.00
2023-05-01T02:51:38.603Z,100.00
2023-05-01T02:54:06.158Z,100.00
2023-05-01T02:56:33.042Z,100.00
2023-05-01T02:59:00.139Z,100.00
2023-05-01T03:01:28.598Z,100.00
2023-05-01T03:03:55.881Z,100.00
2023-05-01T03:06:22.757Z,100.00
2023-05-01T03:08:49.884Z,100.00
2023-05-01T03:11:16.814Z,100.00
2023-05-01T03:13:44.537Z,100.00
2023-05-01T03:16:11.512Z,100.00
2023-05-01T03:18:38.600Z,100.00
2023-05-01T03:21:05.511Z,100.00
2023-05-01T03:23:32.574Z,100.00
2023-05-01T03:25:59.534Z,100.00
2023-05-01T03:28:26.667Z,100.00
2023-05-01T03:30:53.457Z,100.00
2023-05-01T03:33:20.615Z,100.00
2023-05-01T03:35:48.002Z,100.00
2023-05-01T03:38:15.254Z,100.00
2023-05-01T03:40:42.065Z,100.00
2023-05-01T03:43:09.117Z,100.00
2023-05-01T03:45:35.986Z,100.00
2023-05-01T03:48:03.120Z,100.00
2023-05-01T03:50:30.010Z,100.00
2023-05-01T03:52:57.632Z,100.00
2023-05-01T03:55:24.418Z,100.00
2023-05-01T03:57:52.695Z,100.00
2023-05-01T04:00:19.598Z,100.00
2023-05-01T04:02:47.436Z,100.00
2023-05-01T04:05:15.120Z,100.00
2023-05-01T04:07:42.394Z,100.00
2023-05-01T04:10:09.956Z,100.00
2023-05-01T04:12:40.093Z,100.00
2023-05-01T04:15:07.504Z,100.00
2023-05-01T04:17:36.470Z,100.00
2023-05-01T04:20:06.206Z,100.00
2023-05-01T04:22:33.884Z,100.00
2023-05-01T04:25:00.935Z,100.00
2023-05-01T04:27:28.130Z,100.00
2023-05-01T04:29:55.199Z,100.00
2023-05-01T04:32:22.569Z,100.00
2023-05-01T04:34:49.417Z,100.00
2023-05-01T04:37:18.699Z,100.00
2023-05-01T04:39:45.662Z,100.00
2023-05-01T04:42:12.723Z,100.00
2023-05-01T04:44:39.538Z,100.00
2023-05-01T04:47:07.021Z,100.00
2023-05-01T04:49:34.083Z,100.00
2023-05-01T04:52:01.350Z,100.00
2023-05-01T04:54:28.289Z,100.00
2023-05-01T04:56:55.392Z,100.00
2023-05-01T04:59:22.374Z,100.00
2023-05-01T05:01:49.509Z,100.00
2023-05-01T05:04:16.637Z,100.00
2023-05-01T05:06:43.768Z,100.00
2023-05-01T05:09:11.302Z,100.00
2023-05-01T05:11:39.444Z,100.00
2023-05-01T05:14:06.446Z,100.00
2023-05-01T05:16:34.659Z,100.00
2023-05-01T05:19:01.630Z,100.00
2023-05-01T05:21:28.741Z,100.00
2023-05-01T05:23:56.088Z,100.00
2023-05-01T05:26:23.619Z,100.00
2023-05-01T05:28:51.087Z,100.00
2023-05-01T05:31:18.240Z,100.00
2023-05-01T05:33:45.096Z,100.00
2023-05-01T05:36:12.367Z,100.00
2023-05-01T05:38:40.588Z,100.00
2023-05-01T05:41:07.709Z,100.00
2023-05-01T05:43:34.502Z,100.00
2023-05-01T05:46:01.732Z,100.00
2023-05-01T05:48:28.780Z,100.00
2023-05-01T05:50:56.675Z,100.00
2023-05-01T05:53:25.701Z,100.00
2023-05-01T05:55:53.228Z,98.77
2023-05-01T05:58:21.410Z,98.86
2023-05-01T06:00:49.461Z,94.67
2023-05-01T06:03:17.109Z,94.69
2023-05-01T06:05:45.217Z,93.45
2023-05-01T06:08:12.520Z,91.17
2023-05-01T06:10:42.399Z,91.10
2023-05-01T06:13:14.000Z,91.66
2023-05-01T06:15:42.041Z,88.77
2023-05-01T06:18:09.281Z,81.72
2023-05-01T06:20:36.955Z,79.75
2023-05-01T06:23:03.866Z,79.40
2023-05-01T06:25:31.143Z,75.94
2023-05-01T06:27:58.014Z,74.01
2023-05-01T06:30:25.137Z,70.51
2023-05-01T06:32:52.019Z,73.38
2023-05-01T06:35:19.245Z,74.55
2023-05-01T06:37:46.192Z,74.18
2023-05-01T06:40:13.312Z,72.75
2023-05-01T06:42:40.666Z,70.17
2023-05-01T06:45:08.515Z,71.53
2023-05-01T06:47:35.758Z,74.07
2023-05-01T06:50:05.754Z,64.60
2023-05-01T06:52:32.871Z,65.91
2023-05-01T06:54:59.962Z,68.60
2023-05-01T06:57:27.028Z,72.08
2023-05-01T06:59:54.431Z,67.10
2023-05-01T07:02:21.644Z,63.74
2023-05-01T07:04:48.886Z,59.66
2023-05-01T07:07:15.906Z,58.56
2023-05-01T07:09:42.957Z,58.07
2023-05-01T07:12:09.780Z,57.25
2023-05-01T07:14:37.177Z,57.01
2023-05-01T07:17:04.078Z,55.11
2023-05-01T07:19:31.166Z,54.15
2023-05-01T07:21:58.078Z,54.37
2023-05-01T07:24:25.288Z,55.58
2023-05-01T07:26:52.428Z,52.44
2023-05-01T07:29:19.506Z,52.85
2023-05-01T07:31:46.736Z,51.96
2023-05-01T07:34:14.256Z,53.99
2023-05-01T07:36:41.680Z,50.46
2023-05-01T07:39:08.708Z,49.75
2023-05-01T07:41:35.517Z,50.55
2023-05-01T07:44:03.031Z,46.47
2023-05-01T07:46:30.330Z,48.67
2023-05-01T07:48:57.453Z,49.27
2023-05-01T07:51:24.199Z,49.28
2023-05-01T07:53:51.345Z,48.58
2023-05-01T07:56:18.136Z,48.56
2023-05-01T07:58:45.174Z,49.49
2023-05-01T08:01:12.054Z,48.28
2023-05-01T08:03:39.259Z,47.63
2023-05-01T08:06:06.966Z,46.62
2023-05-01T08:08:34.325Z,47.17
2023-05-01T08:11:01.280Z,46.12
2023-05-01T08:13:28.392Z,47.61
2023-05-01T08:15:55.370Z,45.10
2023-05-01T08:18:22.441Z,46.10
2023-05-01T08:20:49.612Z,46.50
2023-05-01T08:23:17.666Z,44.88
2023-05-01T08:25:50.893Z,44.60
2023-05-01T08:28:21.339Z,44.74
2023-05-01T08:30:49.477Z,43.90
2023-05-01T08:33:18.059Z,43.16
2023-05-01T08:35:45.081Z,46.24
2023-05-01T08:38:12.305Z,43.00
2023-05-01T08:40:40.911Z,44.71
2023-05-01T08:43:08.313Z,44.63
2023-05-01T08:45:37.844Z,41.11
2023-05-01T08:48:07.171Z,43.77
2023-05-01T08:50:36.959Z,43.93
2023-05-01T08:53:06.889Z,43.51
2023-05-01T08:55:35.274Z,43.38
2023-05-01T08:58:04.274Z,41.16
2023-05-01T09:00:34.268Z,41.64
2023-05-01T09:03:04.695Z,39.81
2023-05-01T09:05:33.493Z,40.75
2023-05-01T09:08:01.170Z,41.51
2023-05-01T09:10:31.707Z,38.07
2023-05-01T09:13:07.021Z,40.16
2023-05-01T09:15:33.954Z,40.53
2023-05-01T09:18:03.467Z,39.62
2023-05-01T09:20:32.824Z,40.32
2023-05-01T09:22:59.969Z,39.22
2023-05-01T09:25:26.908Z,39.16
2023-05-01T09:27:55.307Z,40.82
2023-05-01T09:30:36.257Z,36.92
2023-05-01T09:33:14.877Z,39.25
2023-05-01T09:35:56.084Z,39.14
2023-05-01T09:38:25.122Z,39.92
2023-05-01T09:40:54.553Z,38.23
2023-05-01T09:43:26.815Z,38.84
2023-05-01T09:46:09.709Z,37.93
2023-05-01T09:48:38.005Z,38.64
2023-05-01T09:51:27.897Z,38.61
2023-05-01T09:53:57.165Z,37.37
2023-05-01T09:56:26.041Z,35.98
2023-05-01T09:58:55.035Z,37.79
2023-05-01T10:01:42.135Z,37.65
2023-05-01T10:04:10.610Z,35.91
2023-05-01T10:06:39.011Z,38.42
2023-05-01T10:09:10.868Z,38.56
2023-05-01T10:11:55.567Z,37.57
2023-05-01T10:14:25.179Z,36.74
2023-05-01T10:16:53.227Z,38.52
2023-05-01T10:19:21.297Z,35.41
2023-05-01T10:21:48.177Z,35.61
2023-05-01T10:24:17.090Z,36.03
2023-05-01T10:26:44.861Z,38.69
2023-05-01T10:29:12.934Z,37.73
2023-05-01T10:31:42.247Z,37.05
2023-05-01T10:34:18.582Z,35.33
2023-05-01T10:36:50.992Z,38.21
2023-05-01T10:39:30.162Z,36.94
2023-05-01T10:42:17.985Z,37.94
2023-05-01T10:44:47.974Z,38.10
2023-05-01T10:47:34.775Z,37.19
2023-05-01T10:50:07.302Z,36.72
2023-05-01T10:53:11.919Z,36.77
2023-05-01T10:55:43.614Z,36.82
2023-05-01T10:58:11.462Z,35.35
2023-05-01T11:00:38.686Z,36.15
2023-05-01T11:03:24.414Z,35.22
2023-05-01T11:06:04.361Z,37.02
2023-05-01T11:08:37.494Z,33.85
2023-05-01T11:11:19.756Z,33.46
2023-05-01T11:14:03.345Z,34.37
2023-05-01T11:16:42.394Z,35.01
2023-05-01T11:19:21.600Z,35.09
2023-05-01T11:21:49.978Z,34.65
2023-05-01T11:24:20.011Z,35.36
2023-05-01T11:26:48.677Z,34.56
2023-05-01T11:29:15.544Z,33.92
2023-05-01T11:31:42.642Z,33.27
2023-05-01T11:34:10.384Z,32.39
2023-05-01T11:36:52.030Z,33.24
2023-05-01T11:39:19.920Z,34.77
2023-05-01T11:41:47.600Z,35.59
2023-05-01T11:44:18.571Z,34.82
2023-05-01T11:46:45.982Z,35.17
2023-05-01T11:49:15.503Z,35.51
2023-05-01T11:51:42.697Z,35.35
2023-05-01T11:54:14.360Z,33.73
2023-05-01T11:56:42.871Z,31.38
2023-05-01T11:59:17.212Z,31.77
2023-05-01T12:01:46.045Z,32.39
2023-05-01T12:04:31.714Z,32.39
2023-05-01T12:06:59.581Z,31.79
2023-05-01T12:09:27.548Z,31.72
2023-05-01T12:11:59.642Z,31.94
2023-05-01T12:14:26.969Z,32.72
2023-05-01T12:16:54.223Z,31.60
2023-05-01T12:19:23.868Z,31.16
2023-05-01T12:22:05.962Z,31.98
2023-05-01T12:24:32.896Z,30.58
2023-05-01T12:27:01.312Z,30.22
2023-05-01T12:29:40.155Z,30.85
2023-05-01T12:32:08.547Z,30.78
2023-05-01T12:34:35.538Z,29.55
2023-05-01T12:37:03.670Z,28.90
2023-05-01T12:39:39.617Z,28.82
2023-05-01T12:42:13.384Z,29.14
2023-05-01T12:44:44.083Z,29.72
2023-05-01T12:47:13.012Z,28.18
2023-05-01T12:49:40.681Z,28.66
2023-05-01T12:52:09.159Z,28.57
2023-05-01T12:54:43.335Z,28.12
2023-05-01T12:57:16.923Z,28.78
2023-05-01T12:59:49.520Z,28.57
2023-05-01T13:02:21.180Z,28.92
2023-05-01T13:04:50.315Z,28.20
2023-05-01T13:07:20.224Z,28.75
2023-05-01T13:10:00.245Z,27.53
2023-05-01T13:12:28.596Z,28.64
2023-05-01T13:14:56.076Z,27.62
2023-05-01T13:17:27.583Z,26.90
2023-05-01T13:20:03.046Z,26.53
2023-05-01T13:22:37.312Z,26.14
2023-05-01T13:25:14.276Z,27.61
2023-05-01T13:27:42.014Z,28.51
2023-05-01T13:30:10.450Z,27.31
2023-05-01T13:32:41.515Z,26.56
2023-05-01T13:35:08.968Z,25.73
2023-05-01T13:37:36.206Z,27.05
2023-05-01T13:40:03.651Z,25.58
2023-05-01T13:42:31.624Z,24.81
2023-05-01T13:44:58.602Z,25.34
2023-05-01T13:47:27.019Z,25.53
2023-05-01T13:49:54.302Z,25.05
2023-05-01T13:52:21.871Z,23.92
2023-05-01T13:54:48.899Z,23.09
2023-05-01T13:57:17.337Z,23.11
2023-05-01T13:59:45.655Z,24.13
2023-05-01T14:02:27.202Z,23.14
2023-05-01T14:04:54.960Z,22.96
2023-05-01T14:07:24.076Z,24.72
2023-05-01T14:09:56.310Z,23.40
2023-05-01T14:12:31.802Z,23.47
2023-05-01T14:15:03.214Z,23.94
2023-05-01T14:17:33.203Z,22.52
2023-05-01T14:20:00.942Z,21.60
2023-05-01T14:22:45.356Z,19.58
2023-05-01T14:25:26.761Z,20.63
2023-05-01T14:27:55.233Z,20.06
2023-05-01T14:30:41.144Z,20.52
2023-05-01T14:33:13.093Z,20.76
2023-05-01T14:35:52.106Z,20.17
2023-05-01T14:38:21.511Z,19.04
2023-05-01T14:40:48.382Z,19.34
2023-05-01T14:43:21.670Z,19.24
2023-05-01T14:45:50.021Z,18.49
2023-05-01T14:48:25.965Z,18.82
2023-05-01T14:50:54.737Z,19.29
2023-05-01T14:53:23.193Z,19.52
2023-05-01T14:55:52.014Z,19.08
2023-05-01T14:58:19.095Z,18.79
2023-05-01T15:00:46.213Z,18.03
2023-05-01T15:03:13.515Z,18.08
2023-05-01T15:05:41.838Z,16.83
2023-05-01T15:08:09.349Z,17.38
2023-05-01T15:10:37.269Z,19.45
2023-05-01T15:13:04.463Z,18.53
2023-05-01T15:15:31.309Z,18.48
2023-05-01T15:17:58.461Z,18.57
2023-05-01T15:20:25.569Z,19.65
2023-05-01T15:22:52.665Z,19.46
2023-05-01T15:25:19.487Z,19.36
2023-05-01T15:27:47.161Z,19.98
2023-05-01T15:30:15.112Z,20.48
2023-05-01T15:32:42.667Z,21.56
2023-05-01T15:35:09.989Z,20.46
2023-05-01T15:37:37.050Z,20.44
2023-05-01T15:40:04.560Z,20.18
2023-05-01T15:42:31.628Z,20.15
2023-05-01T15:44:58.925Z,20.94
2023-05-01T15:47:26.458Z,21.44
2023-05-01T15:49:53.776Z,23.03
2023-05-01T15:52:20.907Z,24.89
2023-05-01T15:54:47.761Z,25.70
2023-05-01T15:57:17.817Z,27.46
2023-05-01T15:59:45.093Z,29.64
2023-05-01T16:02:12.442Z,28.20
2023-05-01T16:04:39.265Z,28.94
2023-05-01T16:07:08.904Z,29.68
2023-05-01T16:09:35.843Z,30.26
2023-05-01T16:12:03.413Z,31.33
2023-05-01T16:14:31.186Z,30.29
2023-05-01T16:16:58.464Z,30.10
2023-05-01T16:19:28.570Z,30.65
2023-05-01T16:21:55.791Z,31.75
2023-05-01T16:24:22.595Z,31.13
2023-05-01T16:26:50.021Z,31.50
2023-05-01T16:29:18.361Z,32.05
2023-05-01T16:31:48.376Z,32.50
2023-05-01T16:34:18.229Z,32.30
2023-05-01T16:36:46.961Z,33.05
2023-05-01T16:39:16.374Z,32.29
2023-05-01T16:41:51.293Z,32.61
2023-05-01T16:44:19.705Z,33.52
2023-05-01T16:46:58.787Z,33.68
2023-05-01T16:49:27.641Z,33.19
2023-05-01T16:51:58.796Z,33.28
2023-05-01T16:54:35.333Z,33.72
2023-05-01T16:57:03.562Z,34.13
2023-05-01T16:59:30.916Z,34.32
2023-05-01T17:01:58.098Z,33.98
2023-05-01T17:04:25.386Z,33.91
2023-05-01T17:06:52.707Z,34.42
2023-05-01T17:09:19.693Z,34.48
2023-05-01T17:11:46.943Z,33.89
2023-05-01T17:14:13.733Z,34.47
2023-05-01T17:16:40.974Z,34.27
2023-05-01T17:19:09.871Z,34.19
2023-05-01T17:21:37.037Z,34.42
2023-05-01T17:24:04.511Z,34.48
2023-05-01T17:26:31.715Z,34.84
2023-05-01T17:28:58.911Z,34.95
2023-05-01T17:31:28.310Z,35.15
2023-05-01T17:33:55.132Z,34.65
2023-05-01T17:36:23.893Z,34.87
2023-05-01T17:38:50.737Z,35.33
2023-05-01T17:41:18.183Z,35.99
2023-05-01T17:43:45.871Z,36.30
2023-05-01T17:46:14.275Z,37.05
2023-05-01T17:48:44.639Z,36.76
2023-05-01T17:51:14.101Z,36.32
2023-05-01T17:53:43.816Z,37.54
2023-05-01T17:56:11.136Z,37.42
2023-05-01T17:58:38.933Z,37.91
2023-05-01T18:01:06.263Z,38.55
2023-05-01T18:03:33.388Z,39.01
2023-05-01T18:06:02.421Z,38.64
2023-05-01T18:08:29.411Z,38.66
2023-05-01T18:10:56.627Z,39.45
2023-05-01T18:13:28.112Z,38.71
2023-05-01T18:15:56.230Z,39.39
2023-05-01T18:18:23.437Z,39.85
2023-05-01T18:20:50.614Z,40.84
2023-05-01T18:23:18.980Z,40.20
2023-05-01T18:25:47.466Z,40.35
2023-05-01T18:28:16.516Z,40.74
2023-05-01T18:30:44.031Z,40.17
2023-05-01T18:33:12.090Z,41.73
2023-05-01T18:35:41.316Z,41.91
2023-05-01T18:38:08.925Z,41.25
2023-05-01T18:40:36.098Z,41.61
2023-05-01T18:43:03.128Z,42.26
2023-05-01T18:45:30.891Z,43.01
2023-05-01T18:48:00.376Z,42.20
2023-05-01T18:50:28.642Z,44.16
2023-05-01T18:52:55.426Z,44.73
2023-05-01T18:55:22.558Z,44.00
2023-05-01T18:57:49.435Z,44.37
2023-05-01T19:00:17.682Z,45.60
2023-05-01T19:02:51.337Z,47.71
2023-05-01T19:05:19.296Z,46.00
2023-05-01T19:07:46.657Z,46.63
2023-05-01T19:10:16.807Z,48.03
2023-05-01T19:12:43.767Z,48.67
2023-05-01T19:15:11.139Z,47.32
2023-05-01T19:17:41.447Z,47.71
2023-05-01T19:20:09.158Z,49.69
2023-05-01T19:22:36.072Z,48.84
2023-05-01T19:25:03.264Z,48.16
2023-05-01T19:27:30.111Z,49.68
2023-05-01T19:30:00.928Z,50.93
2023-05-01T19:32:28.613Z,50.90
2023-05-01T19:34:56.824Z,50.64
2023-05-01T19:37:23.776Z,53.56
2023-05-01T19:39:51.076Z,52.16
2023-05-01T19:42:18.064Z,51.72
2023-05-01T19:44:45.504Z,50.60
2023-05-01T19:47:15.421Z,51.80
2023-05-01T19:49:43.772Z,50.97
2023-05-01T19:52:10.648Z,51.92
2023-05-01T19:54:41.128Z,49.78
2023-05-01T19:57:07.901Z,49.92
2023-05-01T19:59:38.780Z,51.42
2023-05-01T20:02:05.805Z,51.11
2023-05-01T20:04:33.041Z,51.54
2023-05-01T20:07:04.406Z,51.95
2023-05-01T20:09:31.940Z,51.73
2023-05-01T20:11:58.741Z,52.04
2023-05-01T20:14:25.864Z,53.64
2023-05-01T20:16:53.111Z,51.68
2023-05-01T20:19:20.307Z,52.80
2023-05-01T20:21:47.572Z,53.39
2023-05-01T20:24:14.730Z,53.12
2023-05-01T20:26:41.599Z,53.92
2023-05-01T20:29:09.355Z,56.66
2023-05-01T20:31:36.231Z,55.92
2023-05-01T20:34:03.348Z,55.26
2023-05-01T20:36:30.223Z,56.05
2023-05-01T20:38:57.965Z,56.32
2023-05-01T20:41:25.774Z,56.66
2023-05-01T20:43:52.961Z,57.50
2023-05-01T20:46:20.377Z,56.18
2023-05-01T20:48:47.719Z,57.42
2023-05-01T20:51:17.078Z,56.88
2023-05-01T20:53:44.207Z,55.37
2023-05-01T20:56:10.990Z,56.06
2023-05-01T20:58:38.113Z,57.44
2023-05-01T21:01:05.209Z,59.87
2023-05-01T21:03:33.041Z,59.15
2023-05-01T21:06:00.912Z,57.45
2023-05-01T21:08:28.739Z,53.62
2023-05-01T21:10:55.861Z,58.10
2023-05-01T21:13:24.801Z,57.78
2023-05-01T21:15:52.693Z,56.42
2023-05-01T21:18:20.848Z,58.42
2023-05-01T21:20:48.855Z,58.22
2023-05-01T21:23:17.429Z,59.46
2023-05-01T21:25:44.500Z,59.21
2023-05-01T21:28:15.253Z,61.40
2023-05-01T21:30:42.097Z,63.89
2023-05-01T21:33:13.504Z,61.09
2023-05-01T21:35:46.317Z,63.23
2023-05-01T21:38:13.749Z,62.66
2023-05-01T21:40:45.485Z,63.90
2023-05-01T21:43:12.713Z,64.45
2023-05-01T21:45:43.584Z,63.01
2023-05-01T21:48:14.921Z,65.04
2023-05-01T21:50:41.824Z,61.66
2023-05-01T21:53:08.955Z,63.87
2023-05-01T21:55:39.037Z,64.34
2023-05-01T21:58:06.161Z,62.38
2023-05-01T22:00:33.515Z,66.74
2023-05-01T22:03:05.744Z,65.29
2023-05-01T22:05:33.360Z,63.30
2023-05-01T22:08:00.515Z,65.72
2023-05-01T22:10:27.461Z,65.92
2023-05-01T22:12:54.851Z,64.13
2023-05-01T22:15:21.650Z,63.14
2023-05-01T22:17:48.769Z,63.27
2023-05-01T22:20:15.789Z,62.92
2023-05-01T22:22:43.133Z,65.76
2023-05-01T22:25:11.585Z,63.18
2023-05-01T22:27:38.760Z,62.67
2023-05-01T22:30:06.331Z,65.09
2023-05-01T22:32:33.788Z,64.78
2023-05-01T22:35:00.871Z,64.72
2023-05-01T22:37:28.093Z,64.20
2023-05-01T22:39:54.991Z,65.68
2023-05-01T22:42:23.080Z,65.62
2023-05-01T22:44:49.936Z,66.56
2023-05-01T22:47:17.531Z,65.01
2023-05-01T22:49:44.369Z,64.48
2023-05-01T22:52:11.624Z,62.57
2023-05-01T22:54:38.475Z,62.85
2023-05-01T22:57:05.799Z,64.71
2023-05-01T22:59:32.613Z,66.67
2023-05-01T23:02:03.880Z,64.35
2023-05-01T23:04:32.499Z,65.67
2023-05-01T23:06:59.680Z,66.54
2023-05-01T23:09:26.576Z,64.32
2023-05-01T23:11:54.038Z,66.42
2023-05-01T23:14:21.052Z,65.57
2023-05-01T23:16:48.261Z,66.23
2023-05-01T23:19:23.641Z,66.92
2023-05-01T23:22:03.908Z,68.02
2023-05-01T23:24:43.696Z,66.79
2023-05-01T23:27:13.540Z,68.21
2023-05-01T23:29:41.869Z,66.92
2023-05-01T23:32:18.360Z,68.86
2023-05-01T23:34:45.608Z,67.19
2023-05-01T23:37:12.739Z,66.81
2023-05-01T23:39:39.548Z,70.64
2023-05-01T23:42:07.124Z,69.24
2023-05-01T23:44:33.968Z,70.60
2023-05-01T23:47:01.229Z,70.31
2023-05-01T23:49:28.513Z,71.87
2023-05-01T23:51:55.937Z,73.00
2023-05-01T23:54:22.979Z,72.09
2023-05-01T23:56:50.073Z,71.91
2023-05-01T23:59:16.872Z,72.97
